sensor_id;sensor_type;location;lat;lon;timestamp;temperature;humidity
25208;DHT22;13153;52.316;21.166;2023-10-09T00:01:50;7.20;99.90
25208;DHT22;13153;52.316;21.166;2023-10-09T00:04:17;7.20;99.90
25208;DHT22;13153;52.316;21.166;2023-10-09T00:06:43;7.20;99.90
25208;DHT22;13153;52.316;21.166;2023-10-09T00:09:10;7.20;99.90
25208;DHT22;13153;52.316;21.166;2023-10-09T00:11:48;7.20;99.90
25208;DHT22;13153;52.316;21.166;2023-10-09T00:14:14;7.20;99.90
25208;DHT22;13153;52.316;21.166;2023-10-09T00:16:44;7.20;99.90
25208;DHT22;13153;52.316;21.166;2023-10-09T00:19:14;7.20;99.90
25208;DHT22;13153;52.316;21.166;2023-10-09T00:21:49;7.20;99.90
25208;DHT22;13153;52.316;21.166;2023-10-09T00:24:16;7.10;99.90
25208;DHT22;13153;52.316;21.166;2023-10-09T00:26:52;7.10;99.90
25208;DHT22;13153;52.316;21.166;2023-10-09T00:29:26;7.10;2.60
25208;DHT22;13153;52.316;21.166;2023-10-09T00:31:59;7.00;81.90
25208;DHT22;13153;52.316;21.166;2023-10-09T00:34:39;7.00;9.90
25208;DHT22;13153;52.316;21.166;2023-10-09T00:37:11;7.00;99.90
25208;DHT22;13153;52.316;21.166;2023-10-09T00:39:50;7.00;54.40
25208;DHT22;13153;52.316;21.166;2023-10-09T00:42:24;7.00;6.10
25208;DHT22;13153;52.316;21.166;2023-10-09T00:44:58;6.90;50.90
25208;DHT22;13153;52.316;21.166;2023-10-09T00:47:33;7.00;1.00
25208;DHT22;13153;52.316;21.166;2023-10-09T00:50:04;6.90;23.80
25208;DHT22;13153;52.316;21.166;2023-10-09T00:52:44;7.00;1.00
25208;DHT22;13153;52.316;21.166;2023-10-09T00:55:20;7.00;1.00
25208;DHT22;13153;52.316;21.166;2023-10-09T00:58:06;7.00;1.00
25208;DHT22;13153;52.316;21.166;2023-10-09T01:00:38;6.90;1.00
25208;DHT22;13153;52.316;21.166;2023-10-09T01:03:12;7.00;1.00
25208;DHT22;13153;52.316;21.166;2023-10-09T01:05:46;6.90;1.00
25208;DHT22;13153;52.316;21.166;2023-10-09T01:08:32;6.90;1.00
25208;DHT22;13153;52.316;21.166;2023-10-09T01:11:12;6.90;1.00
25208;DHT22;13153;52.316;21.166;2023-10-09T01:13:49;6.90;1.00
25208;DHT22;13153;52.316;21.166;2023-10-09T01:16:20;6.90;1.00
25208;DHT22;13153;52.316;21.166;2023-10-09T01:18:52;6.90;72.50
25208;DHT22;13153;52.316;21.166;2023-10-09T01:21:22;6.90;12.00
25208;DHT22;13153;52.316;21.166;2023-10-09T01:23:53;6.90;1.00
25208;DHT22;13153;52.316;21.166;2023-10-09T01:26:41;6.90;99.90
25208;DHT22;13153;52.316;21.166;2023-10-09T01:29:16;6.90;83.60
25208;DHT22;13153;52.316;21.166;2023-10-09T01:31:51;6.90;1.00
25208;DHT22;13153;52.316;21.166;2023-10-09T01:34:22;6.90;1.00
25208;DHT22;13153;52.316;21.166;2023-10-09T01:37:12;6.90;1.00
25208;DHT22;13153;52.316;21.166;2023-10-09T01:39:49;6.90;1.00
25208;DHT22;13153;52.316;21.166;2023-10-09T01:42:23;6.90;1.00
25208;DHT22;13153;52.316;21.166;2023-10-09T01:44:55;6.90;1.00
25208;DHT22;13153;52.316;21.166;2023-10-09T01:47:23;6.90;1.00
25208;DHT22;13153;52.316;21.166;2023-10-09T01:49:51;6.90;1.00
25208;DHT22;13153;52.316;21.166;2023-10-09T01:52:19;6.90;1.00
25208;DHT22;13153;52.316;21.166;2023-10-09T01:54:47;6.80;1.00
25208;DHT22;13153;52.316;21.166;2023-10-09T01:57:18;6.80;1.00
25208;DHT22;13153;52.316;21.166;2023-10-09T01:59:48;6.80;1.00
25208;DHT22;13153;52.316;21.166;2023-10-09T02:02:16;6.90;1.00
25208;DHT22;13153;52.316;21.166;2023-10-09T02:05:05;6.80;1.00
25208;DHT22;13153;52.316;21.166;2023-10-09T02:07:36;6.80;1.00
25208;DHT22;13153;52.316;21.166;2023-10-09T02:10:10;6.70;1.00
25208;DHT22;13153;52.316;21.166;2023-10-09T02:12:53;6.80;1.00
25208;DHT22;13153;52.316;21.166;2023-10-09T02:18:18;6.80;1.00
25208;DHT22;13153;52.316;21.166;2023-10-09T02:20:49;6.80;1.00
25208;DHT22;13153;52.316;21.166;2023-10-09T02:23:31;6.80;1.00
25208;DHT22;13153;52.316;21.166;2023-10-09T02:26:17;6.80;1.00
25208;DHT22;13153;52.316;21.166;2023-10-09T02:29:05;6.70;1.00
25208;DHT22;13153;52.316;21.166;2023-10-09T02:31:34;6.70;1.00
25208;DHT22;13153;52.316;21.166;2023-10-09T02:34:08;6.60;1.00
25208;DHT22;13153;52.316;21.166;2023-10-09T02:36:38;6.70;1.00
25208;DHT22;13153;52.316;21.166;2023-10-09T02:39:11;6.70;1.00
25208;DHT22;13153;52.316;21.166;2023-10-09T02:41:53;6.70;1.00
25208;DHT22;13153;52.316;21.166;2023-10-09T02:44:25;6.70;1.00
25208;DHT22;13153;52.316;21.166;2023-10-09T02:46:52;6.70;1.00
25208;DHT22;13153;52.316;21.166;2023-10-09T02:49:24;6.70;1.00
25208;DHT22;13153;52.316;21.166;2023-10-09T02:51:52;6.70;1.00
25208;DHT22;13153;52.316;21.166;2023-10-09T02:54:20;6.70;1.00
25208;DHT22;13153;52.316;21.166;2023-10-09T02:56:51;6.70;1.00
25208;DHT22;13153;52.316;21.166;2023-10-09T02:59:22;6.70;1.00
25208;DHT22;13153;52.316;21.166;2023-10-09T03:01:49;6.70;1.00
25208;DHT22;13153;52.316;21.166;2023-10-09T03:04:18;6.70;1.00
25208;DHT22;13153;52.316;21.166;2023-10-09T03:06:45;6.70;1.00
25208;DHT22;13153;52.316;21.166;2023-10-09T03:09:20;6.70;4.30
25208;DHT22;13153;52.316;21.166;2023-10-09T03:11:57;6.70;7.50
25208;DHT22;13153;52.316;21.166;2023-10-09T03:14:29;6.60;37.30
25208;DHT22;13153;52.316;21.166;2023-10-09T03:16:57;6.70;28.00
25208;DHT22;13153;52.316;21.166;2023-10-09T03:19:30;6.70;37.40
25208;DHT22;13153;52.316;21.166;2023-10-09T03:22:04;6.70;73.40
25208;DHT22;13153;52.316;21.166;2023-10-09T03:24:32;6.70;91.50
25208;DHT22;13153;52.316;21.166;2023-10-09T03:26:58;6.70;98.80
25208;DHT22;13153;52.316;21.166;2023-10-09T03:29:24;6.70;99.90
25208;DHT22;13153;52.316;21.166;2023-10-09T03:31:50;6.70;99.60
25208;DHT22;13153;52.316;21.166;2023-10-09T03:34:17;6.70;99.90
25208;DHT22;13153;52.316;21.166;2023-10-09T03:36:46;6.70;99.90
25208;DHT22;13153;52.316;21.166;2023-10-09T03:39:13;6.70;99.90
25208;DHT22;13153;52.316;21.166;2023-10-09T03:41:58;6.70;99.90
25208;DHT22;13153;52.316;21.166;2023-10-09T03:44:27;6.70;99.90
25208;DHT22;13153;52.316;21.166;2023-10-09T03:46:56;6.70;99.90
25208;DHT22;13153;52.316;21.166;2023-10-09T03:49:21;6.70;99.90
25208;DHT22;13153;52.316;21.166;2023-10-09T03:51:51;6.60;99.90
25208;DHT22;13153;52.316;21.166;2023-10-09T03:54:18;6.70;99.90
25208;DHT22;13153;52.316;21.166;2023-10-09T03:56:48;6.70;99.90
25208;DHT22;13153;52.316;21.166;2023-10-09T03:59:20;6.70;99.90
25208;DHT22;13153;52.316;21.166;2023-10-09T04:01:49;6.60;99.90
25208;DHT22;13153;52.316;21.166;2023-10-09T04:04:18;6.70;99.90
25208;DHT22;13153;52.316;21.166;2023-10-09T04:06:48;6.70;99.90
25208;DHT22;13153;52.316;21.166;2023-10-09T04:09:14;6.70;99.90
25208;DHT22;13153;52.316;21.166;2023-10-09T04:11:53;6.70;99.90
25208;DHT22;13153;52.316;21.166;2023-10-09T04:14:36;6.70;99.90
25208;DHT22;13153;52.316;21.166;2023-10-09T04:17:12;6.70;99.90
25208;DHT22;13153;52.316;21.166;2023-10-09T04:19:50;6.70;99.90
25208;DHT22;13153;52.316;21.166;2023-10-09T04:22:35;6.70;99.90
25208;DHT22;13153;52.316;21.166;2023-10-09T04:25:22;6.70;99.90
25208;DHT22;13153;52.316;21.166;2023-10-09T04:27:58;6.70;99.90
25208;DHT22;13153;52.316;21.166;2023-10-09T04:30:43;6.60;99.90
25208;DHT22;13153;52.316;21.166;2023-10-09T04:33:09;6.60;99.90
25208;DHT22;13153;52.316;21.166;2023-10-09T04:35:37;6.70;99.90
25208;DHT22;13153;52.316;21.166;2023-10-09T04:38:03;6.60;99.90
25208;DHT22;13153;52.316;21.166;2023-10-09T04:40:32;6.60;99.90
25208;DHT22;13153;52.316;21.166;2023-10-09T04:43:14;6.60;1.00
25208;DHT22;13153;52.316;21.166;2023-10-09T04:45:47;6.60;1.00
25208;DHT22;13153;52.316;21.166;2023-10-09T04:48:45;6.60;1.00
25208;DHT22;13153;52.316;21.166;2023-10-09T04:51:11;6.70;1.00
25208;DHT22;13153;52.316;21.166;2023-10-09T04:53:49;6.70;1.00
25208;DHT22;13153;52.316;21.166;2023-10-09T04:56:16;6.70;1.00
25208;DHT22;13153;52.316;21.166;2023-10-09T04:58:42;6.60;1.00
25208;DHT22;13153;52.316;21.166;2023-10-09T05:01:09;6.60;1.00
25208;DHT22;13153;52.316;21.166;2023-10-09T05:03:40;6.70;1.00
25208;DHT22;13153;52.316;21.166;2023-10-09T05:06:06;6.70;1.00
25208;DHT22;13153;52.316;21.166;2023-10-09T05:09:07;6.60;1.00
25208;DHT22;13153;52.316;21.166;2023-10-09T05:11:35;6.70;1.00
25208;DHT22;13153;52.316;21.166;2023-10-09T05:14:22;6.70;1.00
25208;DHT22;13153;52.316;21.166;2023-10-09T05:17:04;6.70;1.00
25208;DHT22;13153;52.316;21.166;2023-10-09T05:19:35;6.70;1.00
25208;DHT22;13153;52.316;21.166;2023-10-09T05:22:19;6.80;1.00
25208;DHT22;13153;52.316;21.166;2023-10-09T05:25:02;6.70;1.00
25208;DHT22;13153;52.316;21.166;2023-10-09T05:27:36;6.70;1.00
25208;DHT22;13153;52.316;21.166;2023-10-09T05:30:15;6.70;1.00
25208;DHT22;13153;52.316;21.166;2023-10-09T05:33:00;6.80;1.00
25208;DHT22;13153;52.316;21.166;2023-10-09T05:35:45;6.80;1.00
25208;DHT22;13153;52.316;21.166;2023-10-09T05:38:31;6.80;1.00
25208;DHT22;13153;52.316;21.166;2023-10-09T05:41:01;6.70;1.00
25208;DHT22;13153;52.316;21.166;2023-10-09T05:43:47;6.70;1.00
25208;DHT22;13153;52.316;21.166;2023-10-09T05:46:31;6.70;1.00
25208;DHT22;13153;52.316;21.166;2023-10-09T05:49:01;6.80;1.00
25208;DHT22;13153;52.316;21.166;2023-10-09T05:51:35;6.80;1.00
25208;DHT22;13153;52.316;21.166;2023-10-09T05:54:07;6.90;1.00
25208;DHT22;13153;52.316;21.166;2023-10-09T05:57:08;6.90;1.00
25208;DHT22;13153;52.316;21.166;2023-10-09T05:59:52;6.90;1.00
25208;DHT22;13153;52.316;21.166;2023-10-09T06:02:36;6.90;1.00
25208;DHT22;13153;52.316;21.166;2023-10-09T06:05:20;6.90;1.00
25208;DHT22;13153;52.316;21.166;2023-10-09T06:08:04;6.90;1.00
25208;DHT22;13153;52.316;21.166;2023-10-09T06:10:32;6.90;1.00
25208;DHT22;13153;52.316;21.166;2023-10-09T06:13:05;7.00;1.00
25208;DHT22;13153;52.316;21.166;2023-10-09T06:15:37;7.00;1.00
25208;DHT22;13153;52.316;21.166;2023-10-09T06:18:15;7.00;1.00
25208;DHT22;13153;52.316;21.166;2023-10-09T06:20:58;7.10;1.00
25208;DHT22;13153;52.316;21.166;2023-10-09T06:23:42;7.20;1.00
25208;DHT22;13153;52.316;21.166;2023-10-09T06:26:26;7.30;1.00
25208;DHT22;13153;52.316;21.166;2023-10-09T06:28:52;7.50;1.00
25208;DHT22;13153;52.316;21.166;2023-10-09T06:31:38;7.60;1.00
25208;DHT22;13153;52.316;21.166;2023-10-09T06:34:22;7.80;1.00
25208;DHT22;13153;52.316;21.166;2023-10-09T06:36:58;7.90;1.00
25208;DHT22;13153;52.316;21.166;2023-10-09T06:39:33;8.00;1.00
25208;DHT22;13153;52.316;21.166;2023-10-09T06:42:18;8.00;1.00
25208;DHT22;13153;52.316;21.166;2023-10-09T06:45:02;8.00;1.00
25208;DHT22;13153;52.316;21.166;2023-10-09T06:47:34;8.00;1.00
25208;DHT22;13153;52.316;21.166;2023-10-09T06:50:21;8.00;1.00
25208;DHT22;13153;52.316;21.166;2023-10-09T06:52:54;8.00;1.00
25208;DHT22;13153;52.316;21.166;2023-10-09T06:55:35;8.10;1.00
25208;DHT22;13153;52.316;21.166;2023-10-09T06:58:22;8.10;1.00
25208;DHT22;13153;52.316;21.166;2023-10-09T07:00:51;8.20;1.00
25208;DHT22;13153;52.316;21.166;2023-10-09T07:03:20;8.20;1.00
25208;DHT22;13153;52.316;21.166;2023-10-09T07:06:05;8.30;1.00
25208;DHT22;13153;52.316;21.166;2023-10-09T07:08:36;8.50;1.00
25208;DHT22;13153;52.316;21.166;2023-10-09T07:11:10;8.60;99.90
25208;DHT22;13153;52.316;21.166;2023-10-09T07:14:12;8.70;99.90
25208;DHT22;13153;52.316;21.166;2023-10-09T07:17:05;9.00;99.90
25208;DHT22;13153;52.316;21.166;2023-10-09T07:19:52;9.20;99.90
25208;DHT22;13153;52.316;21.166;2023-10-09T07:22:24;9.50;99.90
25208;DHT22;13153;52.316;21.166;2023-10-09T07:24:56;9.70;99.90
25208;DHT22;13153;52.316;21.166;2023-10-09T07:27:29;9.90;99.90
25208;DHT22;13153;52.316;21.166;2023-10-09T07:30:25;10.00;99.90
25208;DHT22;13153;52.316;21.166;2023-10-09T07:33:00;10.10;99.90
25208;DHT22;13153;52.316;21.166;2023-10-09T07:35:40;10.20;99.90
25208;DHT22;13153;52.316;21.166;2023-10-09T07:38:08;10.10;99.90
25208;DHT22;13153;52.316;21.166;2023-10-09T07:40:55;10.20;99.90
25208;DHT22;13153;52.316;21.166;2023-10-09T07:43:28;10.20;99.90
25208;DHT22;13153;52.316;21.166;2023-10-09T07:46:08;10.20;99.90
25208;DHT22;13153;52.316;21.166;2023-10-09T07:48:55;10.30;99.90
25208;DHT22;13153;52.316;21.166;2023-10-09T07:51:24;10.30;99.90
25208;DHT22;13153;52.316;21.166;2023-10-09T07:53:57;10.30;99.90
25208;DHT22;13153;52.316;21.166;2023-10-09T07:56:36;10.20;92.90
25208;DHT22;13153;52.316;21.166;2023-10-09T07:59:14;10.20;91.50
25208;DHT22;13153;52.316;21.166;2023-10-09T08:01:48;10.20;44.00
25208;DHT22;13153;52.316;21.166;2023-10-09T08:04:22;10.30;45.00
25208;DHT22;13153;52.316;21.166;2023-10-09T08:07:09;10.40;28.30
25208;DHT22;13153;52.316;21.166;2023-10-09T08:09:45;10.40;10.30
25208;DHT22;13153;52.316;21.166;2023-10-09T08:12:37;10.50;1.00
25208;DHT22;13153;52.316;21.166;2023-10-09T08:15:16;10.50;1.00
25208;DHT22;13153;52.316;21.166;2023-10-09T08:17:44;10.50;1.00
25208;DHT22;13153;52.316;21.166;2023-10-09T08:20:16;10.60;1.00
25208;DHT22;13153;52.316;21.166;2023-10-09T08:22:43;10.70;1.00
25208;DHT22;13153;52.316;21.166;2023-10-09T08:25:10;10.80;1.00
25208;DHT22;13153;52.316;21.166;2023-10-09T08:27:56;10.80;1.00
25208;DHT22;13153;52.316;21.166;2023-10-09T08:30:45;10.90;1.00
25208;DHT22;13153;52.316;21.166;2023-10-09T08:33:18;11.10;1.00
25208;DHT22;13153;52.316;21.166;2023-10-09T08:35:50;11.10;1.00
25208;DHT22;13153;52.316;21.166;2023-10-09T08:38:17;11.20;1.00
25208;DHT22;13153;52.316;21.166;2023-10-09T08:40:51;11.50;1.00
25208;DHT22;13153;52.316;21.166;2023-10-09T08:43:23;11.70;1.00
25208;DHT22;13153;52.316;21.166;2023-10-09T08:45:54;12.00;1.00
25208;DHT22;13153;52.316;21.166;2023-10-09T08:48:26;12.20;1.00
25208;DHT22;13153;52.316;21.166;2023-10-09T08:50:55;12.30;1.00
25208;DHT22;13153;52.316;21.166;2023-10-09T08:53:23;12.30;1.00
25208;DHT22;13153;52.316;21.166;2023-10-09T08:55:49;12.40;1.00
25208;DHT22;13153;52.316;21.166;2023-10-09T08:58:17;12.50;1.00
25208;DHT22;13153;52.316;21.166;2023-10-09T09:00:58;12.60;1.00
25208;DHT22;13153;52.316;21.166;2023-10-09T09:03:26;12.70;1.00
25208;DHT22;13153;52.316;21.166;2023-10-09T09:06:00;12.60;1.00
25208;DHT22;13153;52.316;21.166;2023-10-09T09:08:28;12.60;1.00
25208;DHT22;13153;52.316;21.166;2023-10-09T09:13:42;12.70;1.00
25208;DHT22;13153;52.316;21.166;2023-10-09T09:16:22;12.70;1.00
25208;DHT22;13153;52.316;21.166;2023-10-09T09:18:56;12.80;1.00
25208;DHT22;13153;52.316;21.166;2023-10-09T09:21:29;12.80;1.00
25208;DHT22;13153;52.316;21.166;2023-10-09T09:24:02;12.90;1.00
25208;DHT22;13153;52.316;21.166;2023-10-09T09:26:36;12.90;1.00
25208;DHT22;13153;52.316;21.166;2023-10-09T09:29:06;12.80;1.00
25208;DHT22;13153;52.316;21.166;2023-10-09T09:31:35;12.80;1.00
25208;DHT22;13153;52.316;21.166;2023-10-09T09:34:04;12.90;1.00
25208;DHT22;13153;52.316;21.166;2023-10-09T09:36:48;12.90;1.00
25208;DHT22;13153;52.316;21.166;2023-10-09T09:39:20;13.00;1.00
25208;DHT22;13153;52.316;21.166;2023-10-09T09:41:58;13.20;1.00
25208;DHT22;13153;52.316;21.166;2023-10-09T09:44:33;13.20;1.00
25208;DHT22;13153;52.316;21.166;2023-10-09T09:47:09;13.50;1.00
25208;DHT22;13153;52.316;21.166;2023-10-09T09:49:42;13.60;1.00
25208;DHT22;13153;52.316;21.166;2023-10-09T09:52:09;13.70;1.00
25208;DHT22;13153;52.316;21.166;2023-10-09T09:54:38;13.70;1.00
25208;DHT22;13153;52.316;21.166;2023-10-09T09:57:07;13.70;1.00
25208;DHT22;13153;52.316;21.166;2023-10-09T09:59:42;13.70;1.00
25208;DHT22;13153;52.316;21.166;2023-10-09T10:02:27;13.70;1.00
25208;DHT22;13153;52.316;21.166;2023-10-09T10:05:13;13.70;1.00
25208;DHT22;13153;52.316;21.166;2023-10-09T10:07:41;13.70;1.00
25208;DHT22;13153;52.316;21.166;2023-10-09T10:10:40;13.60;1.00
25208;DHT22;13153;52.316;21.166;2023-10-09T10:16:11;13.50;1.00
25208;DHT22;13153;52.316;21.166;2023-10-09T10:19:01;13.30;1.00
25208;DHT22;13153;52.316;21.166;2023-10-09T10:21:50;13.10;1.00
25208;DHT22;13153;52.316;21.166;2023-10-09T10:35:19;12.70;1.00
25208;DHT22;13153;52.316;21.166;2023-10-09T10:38:00;12.70;1.00
25208;DHT22;13153;52.316;21.166;2023-10-09T10:40:40;12.70;1.00
25208;DHT22;13153;52.316;21.166;2023-10-09T10:43:20;12.70;1.00
25208;DHT22;13153;52.316;21.166;2023-10-09T10:46:07;12.70;1.00
25208;DHT22;13153;52.316;21.166;2023-10-09T10:48:53;12.80;1.00
25208;DHT22;13153;52.316;21.166;2023-10-09T10:51:26;12.80;1.00
25208;DHT22;13153;52.316;21.166;2023-10-09T10:54:04;12.90;1.00
25208;DHT22;13153;52.316;21.166;2023-10-09T10:56:49;12.90;1.00
25208;DHT22;13153;52.316;21.166;2023-10-09T10:59:20;12.90;1.00
25208;DHT22;13153;52.316;21.166;2023-10-09T11:01:50;13.00;1.00
25208;DHT22;13153;52.316;21.166;2023-10-09T11:04:24;13.00;1.00
25208;DHT22;13153;52.316;21.166;2023-10-09T11:06:59;13.00;1.00
25208;DHT22;13153;52.316;21.166;2023-10-09T11:09:43;13.00;1.00
25208;DHT22;13153;52.316;21.166;2023-10-09T11:12:28;13.00;1.00
25208;DHT22;13153;52.316;21.166;2023-10-09T11:15:14;13.00;1.00
25208;DHT22;13153;52.316;21.166;2023-10-09T11:18:05;13.00;1.00
25208;DHT22;13153;52.316;21.166;2023-10-09T11:20:51;13.00;1.00
25208;DHT22;13153;52.316;21.166;2023-10-09T11:23:43;13.00;1.00
25208;DHT22;13153;52.316;21.166;2023-10-09T11:26:18;13.00;1.00
25208;DHT22;13153;52.316;21.166;2023-10-09T11:29:06;13.00;1.00
25208;DHT22;13153;52.316;21.166;2023-10-09T11:32:03;13.00;1.00
25208;DHT22;13153;52.316;21.166;2023-10-09T11:34:35;12.90;1.00
25208;DHT22;13153;52.316;21.166;2023-10-09T11:37:13;12.90;1.00
25208;DHT22;13153;52.316;21.166;2023-10-09T11:39:57;12.90;1.00
25208;DHT22;13153;52.316;21.166;2023-10-09T11:42:28;12.80;1.00
25208;DHT22;13153;52.316;21.166;2023-10-09T11:45:08;12.80;1.00
25208;DHT22;13153;52.316;21.166;2023-10-09T11:47:54;12.70;1.00
25208;DHT22;13153;52.316;21.166;2023-10-09T11:50:47;12.60;1.00
25208;DHT22;13153;52.316;21.166;2023-10-09T11:53:40;12.60;1.00
25208;DHT22;13153;52.316;21.166;2023-10-09T11:56:09;12.60;1.00
25208;DHT22;13153;52.316;21.166;2023-10-09T11:58:40;12.60;1.00
25208;DHT22;13153;52.316;21.166;2023-10-09T12:01:13;12.60;1.00
25208;DHT22;13153;52.316;21.166;2023-10-09T12:03:46;12.60;1.00
25208;DHT22;13153;52.316;21.166;2023-10-09T12:06:17;12.60;1.00
25208;DHT22;13153;52.316;21.166;2023-10-09T12:08:48;12.60;1.00
25208;DHT22;13153;52.316;21.166;2023-10-09T12:11:17;12.60;1.00
25208;DHT22;13153;52.316;21.166;2023-10-09T12:13:54;12.50;1.00
25208;DHT22;13153;52.316;21.166;2023-10-09T12:16:26;12.60;1.00
25208;DHT22;13153;52.316;21.166;2023-10-09T12:18:56;12.60;1.00
25208;DHT22;13153;52.316;21.166;2023-10-09T12:21:23;12.60;1.00
25208;DHT22;13153;52.316;21.166;2023-10-09T12:23:49;12.60;1.00
25208;DHT22;13153;52.316;21.166;2023-10-09T12:26:15;12.50;1.00
25208;DHT22;13153;52.316;21.166;2023-10-09T12:28:41;12.40;1.00
25208;DHT22;13153;52.316;21.166;2023-10-09T12:31:14;12.40;1.00
25208;DHT22;13153;52.316;21.166;2023-10-09T12:33:41;12.50;1.00
25208;DHT22;13153;52.316;21.166;2023-10-09T12:36:16;12.40;1.00
25208;DHT22;13153;52.316;21.166;2023-10-09T12:38:48;12.50;1.00
25208;DHT22;13153;52.316;21.166;2023-10-09T12:41:18;12.50;1.00
25208;DHT22;13153;52.316;21.166;2023-10-09T12:43:54;12.40;1.00
25208;DHT22;13153;52.316;21.166;2023-10-09T12:46:21;12.40;1.00
25208;DHT22;13153;52.316;21.166;2023-10-09T12:48:52;12.40;1.00
25208;DHT22;13153;52.316;21.166;2023-10-09T12:51:20;12.30;1.00
25208;DHT22;13153;52.316;21.166;2023-10-09T12:53:55;12.30;1.00
25208;DHT22;13153;52.316;21.166;2023-10-09T12:56:24;12.30;1.00
25208;DHT22;13153;52.316;21.166;2023-10-09T12:59:03;12.20;1.00
25208;DHT22;13153;52.316;21.166;2023-10-09T13:01:30;12.30;1.00
25208;DHT22;13153;52.316;21.166;2023-10-09T13:04:12;12.30;1.00
25208;DHT22;13153;52.316;21.166;2023-10-09T13:06:42;12.40;1.00
25208;DHT22;13153;52.316;21.166;2023-10-09T13:09:15;12.40;1.00
25208;DHT22;13153;52.316;21.166;2023-10-09T13:11:58;12.40;1.00
25208;DHT22;13153;52.316;21.166;2023-10-09T13:14:29;12.40;1.00
25208;DHT22;13153;52.316;21.166;2023-10-09T13:16:59;12.30;1.00
25208;DHT22;13153;52.316;21.166;2023-10-09T13:19:25;12.40;1.00
25208;DHT22;13153;52.316;21.166;2023-10-09T13:21:51;12.30;1.00
25208;DHT22;13153;52.316;21.166;2023-10-09T13:24:17;12.30;1.00
25208;DHT22;13153;52.316;21.166;2023-10-09T13:26:43;12.30;1.00
25208;DHT22;13153;52.316;21.166;2023-10-09T13:29:17;12.30;1.00
25208;DHT22;13153;52.316;21.166;2023-10-09T13:31:48;12.30;1.00
25208;DHT22;13153;52.316;21.166;2023-10-09T13:34:17;12.20;1.00
25208;DHT22;13153;52.316;21.166;2023-10-09T13:36:43;12.20;1.00
25208;DHT22;13153;52.316;21.166;2023-10-09T13:39:18;12.10;1.00
25208;DHT22;13153;52.316;21.166;2023-10-09T13:41:45;12.10;1.00
25208;DHT22;13153;52.316;21.166;2023-10-09T13:44:11;12.00;1.00
25208;DHT22;13153;52.316;21.166;2023-10-09T13:46:37;11.90;1.00
25208;DHT22;13153;52.316;21.166;2023-10-09T13:49:11;11.80;1.00
25208;DHT22;13153;52.316;21.166;2023-10-09T13:51:43;11.80;1.00
25208;DHT22;13153;52.316;21.166;2023-10-09T13:54:13;11.60;1.00
25208;DHT22;13153;52.316;21.166;2023-10-09T13:57:00;11.60;1.00
25208;DHT22;13153;52.316;21.166;2023-10-09T13:59:29;11.50;1.00
25208;DHT22;13153;52.316;21.166;2023-10-09T14:01:56;11.50;1.00
25208;DHT22;13153;52.316;21.166;2023-10-09T14:04:23;11.40;1.00
25208;DHT22;13153;52.316;21.166;2023-10-09T14:06:49;11.30;1.00
25208;DHT22;13153;52.316;21.166;2023-10-09T14:09:23;11.30;1.00
25208;DHT22;13153;52.316;21.166;2023-10-09T14:12:10;11.30;1.00
25208;DHT22;13153;52.316;21.166;2023-10-09T14:14:39;11.30;1.00
25208;DHT22;13153;52.316;21.166;2023-10-09T14:17:15;11.30;1.00
25208;DHT22;13153;52.316;21.166;2023-10-09T14:19:49;11.30;1.00
25208;DHT22;13153;52.316;21.166;2023-10-09T14:22:23;11.30;1.00
25208;DHT22;13153;52.316;21.166;2023-10-09T14:24:53;11.30;1.00
25208;DHT22;13153;52.316;21.166;2023-10-09T14:27:25;11.20;1.00
25208;DHT22;13153;52.316;21.166;2023-10-09T14:29:55;11.20;1.00
25208;DHT22;13153;52.316;21.166;2023-10-09T14:32:24;11.20;1.00
25208;DHT22;13153;52.316;21.166;2023-10-09T14:34:54;11.20;1.00
25208;DHT22;13153;52.316;21.166;2023-10-09T14:37:26;11.10;1.00
25208;DHT22;13153;52.316;21.166;2023-10-09T14:39:53;11.10;1.00
25208;DHT22;13153;52.316;21.166;2023-10-09T14:42:19;11.10;1.00
25208;DHT22;13153;52.316;21.166;2023-10-09T14:44:48;11.00;1.00
25208;DHT22;13153;52.316;21.166;2023-10-09T14:47:15;11.00;1.00
25208;DHT22;13153;52.316;21.166;2023-10-09T14:49:47;11.00;1.00
25208;DHT22;13153;52.316;21.166;2023-10-09T14:52:14;11.00;1.00
25208;DHT22;13153;52.316;21.166;2023-10-09T14:54:45;10.90;1.00
25208;DHT22;13153;52.316;21.166;2023-10-09T14:57:12;10.90;1.00
25208;DHT22;13153;52.316;21.166;2023-10-09T14:59:39;10.90;1.00
25208;DHT22;13153;52.316;21.166;2023-10-09T15:02:05;10.90;1.00
25208;DHT22;13153;52.316;21.166;2023-10-09T15:04:32;10.90;1.00
25208;DHT22;13153;52.316;21.166;2023-10-09T15:07:02;10.80;1.00
25208;DHT22;13153;52.316;21.166;2023-10-09T15:09:32;10.80;1.00
25208;DHT22;13153;52.316;21.166;2023-10-09T15:12:00;10.70;1.00
25208;DHT22;13153;52.316;21.166;2023-10-09T15:14:26;10.70;1.00
25208;DHT22;13153;52.316;21.166;2023-10-09T15:16:52;10.70;1.00
25208;DHT22;13153;52.316;21.166;2023-10-09T15:19:17;10.60;1.00
25208;DHT22;13153;52.316;21.166;2023-10-09T15:21:44;10.60;1.00
25208;DHT22;13153;52.316;21.166;2023-10-09T15:24:11;10.50;1.00
25208;DHT22;13153;52.316;21.166;2023-10-09T15:26:50;10.50;54.10
25208;DHT22;13153;52.316;21.166;2023-10-09T15:29:23;10.60;99.90
25208;DHT22;13153;52.316;21.166;2023-10-09T15:32:01;10.50;99.90
25208;DHT22;13153;52.316;21.166;2023-10-09T15:34:34;10.60;1.00
25208;DHT22;13153;52.316;21.166;2023-10-09T15:37:05;10.60;1.00
25208;DHT22;13153;52.316;21.166;2023-10-09T15:39:35;10.60;1.00
25208;DHT22;13153;52.316;21.166;2023-10-09T15:42:02;10.60;1.00
25208;DHT22;13153;52.316;21.166;2023-10-09T15:44:35;10.50;1.00
25208;DHT22;13153;52.316;21.166;2023-10-09T15:47:04;10.50;1.00
25208;DHT22;13153;52.316;21.166;2023-10-09T15:49:33;10.50;1.00
25208;DHT22;13153;52.316;21.166;2023-10-09T15:52:03;10.50;1.00
25208;DHT22;13153;52.316;21.166;2023-10-09T15:54:33;10.50;1.00
25208;DHT22;13153;52.316;21.166;2023-10-09T15:56:58;10.50;1.00
25208;DHT22;13153;52.316;21.166;2023-10-09T15:59:24;10.40;1.00
25208;DHT22;13153;52.316;21.166;2023-10-09T16:01:50;10.40;1.00
25208;DHT22;13153;52.316;21.166;2023-10-09T16:04:17;10.40;5.00
25208;DHT22;13153;52.316;21.166;2023-10-09T16:06:43;10.40;45.60
25208;DHT22;13153;52.316;21.166;2023-10-09T16:09:09;10.30;65.30
25208;DHT22;13153;52.316;21.166;2023-10-09T16:11:40;10.20;67.50
25208;DHT22;13153;52.316;21.166;2023-10-09T16:14:07;10.20;99.90
25208;DHT22;13153;52.316;21.166;2023-10-09T16:16:36;10.10;99.90
25208;DHT22;13153;52.316;21.166;2023-10-09T16:19:10;10.10;99.90
25208;DHT22;13153;52.316;21.166;2023-10-09T16:21:37;10.00;1.00
25208;DHT22;13153;52.316;21.166;2023-10-09T16:24:04;10.00;1.00
25208;DHT22;13153;52.316;21.166;2023-10-09T16:26:32;10.00;1.00
25208;DHT22;13153;52.316;21.166;2023-10-09T16:29:09;9.90;1.00
25208;DHT22;13153;52.316;21.166;2023-10-09T16:31:35;9.90;99.90
25208;DHT22;13153;52.316;21.166;2023-10-09T16:34:02;9.80;99.90
25208;DHT22;13153;52.316;21.166;2023-10-09T16:36:30;9.80;99.90
25208;DHT22;13153;52.316;21.166;2023-10-09T16:38:56;9.80;99.90